메인 페이지
METAR-TAF:

METAR-TAF

공항 :

킹스턴, 자메이카

위도: 17-56N, 경도: 076-47W, 고도: 3m

현재 날씨관측

예보는 1 시간 9분 전, 13:00시(UTC)에 발표되었습니다.
여러 방향의 바람 2kt
온도 29°C
습도 79%
기압 1016 hPa
시정 10km 이상
고도 2000ft 상공 구름 조금
고도 2200ft 상공 구름 조금, 적란운.

METAR: MKJP 061300Z VRB02KT 9999 FEW020 FEW022CB 29/25 Q1016

시각: 09:09 (14:09 UTC)

예보

예보는 2 시간 54분 전, 11:15시(UTC)에 발표되었습니다.
예보 대상 시간: 06일 12시부터 07일 12시까지 (UTC)
5kt
시정 10km 이상
고도 2000ft 상공 구름 조금
고도 2200ft 상공 구름 조금, 적란운.
전환 중
06일 14시부터 06일 16시까지 (UTC)
남동15kt
전환 중
07일 01시부터 07일 03시까지 (UTC)
5kt

TAF: MKJP 061115Z 0612/0712 36005KT 9999 FEW020 FEW022CB BECMG 0614/0616 14015KT BECMG 0701/0703 35005KT

4,000개 이상의 공항 관측 자료 및 예보 (METAR 및 TAF 보고).

지도상에서 검색 가능한 기상관측소가 노란 점과 빨간 점으로 표시되어 있습니다.

기상관측소 명을 보려면 표시 위로 마우스를 이동하세요.

날씨 관측과 예보를 보려면 클릭하세요.

지도 변경 : 확대하려면 엑스 표시가 있는 녹색 버튼, 축소하려면 빼기 표시가 있는 녹색 버튼, 다음 페이지의 지도를 보려면 녹색 화살표를 클릭하세요.


METAR-TAF: